Time;durP1;ratioP1;P1;durP2;ratioP2;P2;SDS_P1;SDS_P2;PMS_P1;PMS_P2;Temp;Humidity;BMP_temperature;BMP_pressure;BME280_temperature;BME280_humidity;BME280_pressure;Samples;Min_cycle;Max_cycle;Signal;HPM_P1;HPM_P2
2022/08/01 00:01:06;;;;;;;10.07;7.85;;;19.00;99.90;;;;;;4989253;28;20050;-82
2022/08/01 00:03:32;;;;;;;8.52;7.68;;;18.50;99.90;;;;;;4987696;28;20038;-82
2022/08/01 00:05:58;;;;;;;11.15;7.80;;;18.50;99.90;;;;;;4986363;28;20069;-82
2022/08/01 00:08:23;;;;;;;8.65;7.72;;;18.60;99.90;;;;;;4986510;28;20045;-82
2022/08/01 00:10:49;;;;;;;11.82;7.70;;;18.60;99.90;;;;;;4986571;28;20053;-82
2022/08/01 00:13:14;;;;;;;9.52;7.25;;;18.50;99.90;;;;;;4987971;28;20390;-82
2022/08/01 00:15:40;;;;;;;10.23;7.38;;;18.50;99.90;;;;;;4986403;28;20137;-82
2022/08/01 00:18:08;;;;;;;7.97;7.00;;;18.50;99.90;;;;;;4985782;28;20903;-82
2022/08/01 00:20:34;;;;;;;8.55;6.15;;;18.50;99.90;;;;;;4991226;28;20975;-82
2022/08/01 00:23:02;;;;;;;10.40;6.85;;;18.50;99.90;;;;;;4987963;28;20085;-82
2022/08/01 00:25:28;;;;;;;9.65;7.30;;;18.50;99.90;;;;;;4989645;28;20078;-82
2022/08/01 00:27:54;;;;;;;8.00;6.57;;;18.50;99.90;;;;;;4986810;28;20073;-82
2022/08/01 00:30:19;;;;;;;10.57;7.20;;;18.50;99.90;;;;;;4983502;28;20041;-82
2022/08/01 00:32:45;;;;;;;10.00;5.95;;;18.50;99.90;;;;;;5000674;28;20046;-82
2022/08/01 00:35:10;;;;;;;8.45;6.32;;;18.50;99.90;;;;;;5004504;28;20668;-82
2022/08/01 00:37:36;;;;;;;6.10;5.53;;;18.50;99.90;;;;;;4990460;28;20117;-82
2022/08/01 00:40:02;;;;;;;5.57;5.07;;;18.40;99.90;;;;;;4987076;28;20557;-82
2022/08/01 00:42:27;;;;;;;5.65;5.07;;;18.40;99.90;;;;;;4991311;28;20127;-82
2022/08/01 00:44:53;;;;;;;7.88;5.43;;;18.40;99.90;;;;;;4991997;28;20311;-82
2022/08/01 00:47:18;;;;;;;6.82;4.93;;;18.40;99.90;;;;;;4974796;28;20096;-82
2022/08/01 00:49:44;;;;;;;8.77;5.28;;;18.40;99.90;;;;;;4984883;28;20049;-82
2022/08/01 00:52:10;;;;;;;12.25;5.68;;;18.40;99.90;;;;;;4990038;28;20035;-82
2022/08/01 00:54:36;;;;;;;10.43;5.25;;;18.40;99.90;;;;;;4996614;28;20146;-82
2022/08/01 00:57:03;;;;;;;6.32;5.15;;;18.30;99.90;;;;;;4992816;28;20050;-82
2022/08/01 00:59:29;;;;;;;5.82;5.13;;;18.40;99.90;;;;;;4989859;28;20049;-82
2022/08/01 01:01:55;;;;;;;6.95;4.20;;;18.30;99.90;;;;;;4989947;28;20546;-82
2022/08/01 01:04:20;;;;;;;5.07;4.25;;;18.30;99.90;;;;;;4990484;28;20034;-82
2022/08/01 01:07:24;;;;;;;4.38;3.90;;;18.30;99.90;;;;;;4991610;28;20170;-82
2022/08/01 01:10:08;;;;;;;5.50;4.25;;;18.30;99.90;;;;;;4971423;28;20654;-82
2022/08/01 01:12:55;;;;;;;6.55;4.72;;;18.20;99.90;;;;;;4991733;28;20620;-82
2022/08/01 01:15:23;;;;;;;5.03;4.00;;;18.30;99.90;;;;;;4992091;28;20038;-82
2022/08/01 01:17:57;;;;;;;9.40;5.50;;;18.30;99.90;;;;;;4987353;28;20050;-82
2022/08/01 01:20:31;;;;;;;5.63;4.60;;;18.30;99.90;;;;;;4987520;28;20053;-82
2022/08/01 01:22:57;;;;;;;6.35;5.40;;;18.40;99.90;;;;;;4990046;28;20053;-82
2022/08/01 01:25:38;;;;;;;8.40;5.40;;;18.30;99.90;;;;;;4989478;28;20038;-82
2022/08/01 01:28:43;;;;;;;11.40;5.03;;;18.30;99.90;;;;;;4989435;28;20104;-82
2022/08/01 01:31:12;;;;;;;5.25;4.72;;;18.30;99.90;;;;;;4985597;28;20038;-82
2022/08/01 01:33:40;;;;;;;5.75;5.03;;;18.40;99.90;;;;;;4990515;28;20046;-82
2022/08/01 01:36:09;;;;;;;6.53;3.28;;;18.30;99.90;;;;;;4974912;28;20051;-82
2022/08/01 01:38:41;;;;;;;5.30;2.30;;;18.40;99.90;;;;;;4990277;28;20214;-82
2022/08/01 01:41:09;;;;;;;3.53;2.20;;;18.40;99.90;;;;;;4992309;28;20065;-83
2022/08/01 01:43:36;;;;;;;3.08;2.03;;;18.30;99.90;;;;;;5004468;28;20037;-83
2022/08/01 01:46:04;;;;;;;2.03;1.80;;;18.40;99.90;;;;;;5002313;28;20107;-82
2022/08/01 01:48:30;;;;;;;1.73;1.48;;;18.30;99.90;;;;;;5004301;28;20057;-82
2022/08/01 01:50:56;;;;;;;5.53;1.38;;;18.30;99.90;;;;;;5018377;28;20045;-82
2022/08/01 01:53:23;;;;;;;2.00;1.23;;;18.30;99.90;;;;;;5004382;28;20033;-82
2022/08/01 01:55:52;;;;;;;2.65;1.13;;;18.30;99.90;;;;;;5006607;28;20148;-82
2022/08/01 01:58:19;;;;;;;2.67;1.67;;;18.30;99.90;;;;;;5010577;28;20050;-82
2022/08/01 02:00:48;;;;;;;3.60;1.88;;;18.20;99.90;;;;;;4991019;28;20113;-82
2022/08/01 02:03:15;;;;;;;2.08;1.58;;;18.20;99.90;;;;;;5009773;28;20041;-82
2022/08/01 02:05:42;;;;;;;3.78;1.63;;;18.20;99.90;;;;;;5006499;28;20050;-82
2022/08/01 02:08:11;;;;;;;3.63;1.70;;;18.20;99.90;;;;;;5009410;28;20085;-82
2022/08/01 02:10:38;;;;;;;2.63;2.13;;;18.20;99.90;;;;;;5005273;28;20066;-82
2022/08/01 02:13:06;;;;;;;2.95;1.92;;;18.20;99.90;;;;;;5006608;28;20090;-82
2022/08/01 02:15:34;;;;;;;4.45;2.47;;;18.20;99.90;;;;;;5005788;28;20122;-82
2022/08/01 02:20:49;;;;;;;6.50;2.30;;;18.20;99.90;;;;;;5045475;28;20049;-82
2022/08/01 02:23:49;;;;;;;3.13;2.53;;;18.20;99.90;;;;;;5063332;28;20324;-82
2022/08/01 02:26:41;;;;;;;;;;;;;;;;;;;;;
2022/08/01 02:30:06;;;;;;;;;;;;;;;;;;;;;
2022/08/01 02:32:56;;;;;;;3.58;2.33;;;18.10;99.90;;;;;;4993613;28;20110;-83
2022/08/01 02:35:51;;;;;;;3.13;2.83;;;18.20;99.90;;;;;;5024364;28;20618;-82
2022/08/01 02:38:48;;;;;;;3.33;2.65;;;18.30;99.90;;;;;;5026905;28;20101;-82
2022/08/01 02:41:47;;;;;;;;;;;;;;;;;;;;;
2022/08/01 02:44:44;;;;;;;7.40;1.58;;;18.70;99.90;;;;;;5025176;28;20388;-81
2022/08/01 02:47:40;;;;;;;4.93;1.70;;;18.50;99.90;;;;;;5015661;28;20054;-81
2022/08/01 02:50:18;;;;;;;5.22;1.38;;;18.10;99.90;;;;;;5039351;28;20033;-81
2022/08/01 02:52:54;;;;;;;8.48;1.05;;;18.00;99.90;;;;;;5023800;28;20060;-81
2022/08/01 02:55:27;;;;;;;5.72;1.52;;;18.00;99.90;;;;;;5022922;28;20044;-81
2022/08/01 02:58:09;;;;;;;4.80;1.30;;;18.10;99.90;;;;;;5033070;28;20050;-81
2022/08/01 03:01:23;;;;;;;3.33;1.15;;;18.00;99.90;;;;;;5001441;28;20053;-81
2022/08/01 03:03:59;;;;;;;8.52;1.15;;;17.90;99.90;;;;;;5010999;28;20041;-81
2022/08/01 03:07:04;;;;;;;;;;;;;;;;;;;;;
2022/08/01 03:09:37;;;;;;;5.07;1.23;;;18.00;99.90;;;;;;5013267;28;20061;-81
2022/08/01 03:12:06;;;;;;;5.97;1.00;;;17.90;99.90;;;;;;5030393;28;20591;-82
2022/08/01 03:14:35;;;;;;;4.82;0.98;;;17.90;99.90;;;;;;5025168;28;20034;-81
2022/08/01 03:17:03;;;;;;;6.65;0.80;;;17.80;99.90;;;;;;5008074;28;20132;-81
2022/08/01 03:19:31;;;;;;;4.20;0.95;;;17.80;99.90;;;;;;5019486;28;20038;-81
2022/08/01 03:22:03;;;;;;;3.78;0.73;;;17.80;99.90;;;;;;5023390;28;20026;-81
2022/08/01 03:24:30;;;;;;;4.60;1.17;;;17.80;99.90;;;;;;5021937;28;20057;-81
2022/08/01 03:26:58;;;;;;;6.00;0.75;;;17.80;99.90;;;;;;5021705;28;20073;-81
2022/08/01 03:29:27;;;;;;;5.10;1.00;;;17.80;99.90;;;;;;5018435;28;20066;-81
2022/08/01 03:31:53;;;;;;;6.25;0.82;;;17.70;99.90;;;;;;5022853;28;20045;-81
2022/08/01 03:34:21;;;;;;;6.38;0.98;;;17.70;99.90;;;;;;5003759;28;20042;-81
2022/08/01 03:36:56;;;;;;;10.80;1.20;;;17.70;99.90;;;;;;5002349;28;20137;-81
2022/08/01 03:39:46;;;;;;;;;;;;;;;;;;;;;
2022/08/01 03:42:31;;;;;;;;;;;;;;;;;;;;;
2022/08/01 03:46:11;;;;;;;;;;;;;;;;;;;;;
2022/08/01 03:52:07;;;;;;;6.22;1.40;;;17.60;99.90;;;;;;5003904;28;20049;-80
2022/08/01 03:55:20;;;;;;;4.78;1.13;;;17.60;99.90;;;;;;4984330;28;20109;-80
2022/08/01 03:58:22;;;;;;;;;;;;;;;;;;;;;
2022/08/01 04:01:18;;;;;;;9.98;2.05;;;17.50;99.90;;;;;;4982181;28;20061;-80
2022/08/01 04:04:05;;;;;;;6.78;1.67;;;17.60;99.90;;;;;;5018562;28;20048;-81
2022/08/01 04:07:03;;;;;;;8.00;1.35;;;17.60;99.90;;;;;;5018042;28;20077;-81
2022/08/01 04:09:48;;;;;;;7.78;1.63;;;17.70;99.90;;;;;;5011959;28;20093;-81
2022/08/01 04:18:36;;;;;;;9.40;2.22;;;17.60;99.90;;;;;;4966639;28;20062;-81
2022/08/01 04:24:18;;;;;;;7.70;1.52;;;17.40;99.90;;;;;;5011214;28;20057;-80
2022/08/01 04:27:00;;;;;;;;;;;17.50;99.90;;;;;;5029470;28;20069;-81
2022/08/01 04:29:32;;;;;;;6.63;1.77;;;17.50;99.90;;;;;;5010556;28;19917;-81
2022/08/01 04:32:00;;;;;;;7.55;2.30;;;17.50;99.90;;;;;;5012217;28;20053;-81
2022/08/01 04:34:30;;;;;;;5.25;1.88;;;17.40;99.90;;;;;;5034393;28;20045;-81
2022/08/01 04:36:57;;;;;;;9.10;2.25;;;17.50;99.90;;;;;;5018505;28;20080;-81
2022/08/01 04:39:30;;;;;;;7.30;1.58;;;17.50;99.90;;;;;;5013490;28;20046;-81
2022/08/01 04:41:59;;;;;;;7.43;2.03;;;17.50;99.90;;;;;;5027314;28;20045;-81
2022/08/01 04:44:27;;;;;;;8.82;2.10;;;17.50;99.90;;;;;;5030809;28;20089;-81
2022/08/01 04:46:54;;;;;;;5.75;2.13;;;17.50;99.90;;;;;;5034426;28;20467;-81
2022/08/01 04:49:21;;;;;;;7.10;1.60;;;17.50;99.90;;;;;;5007705;28;20037;-81
2022/08/01 04:52:00;;;;;;;8.43;1.95;;;17.50;99.90;;;;;;5015707;28;20395;-81
2022/08/01 04:54:33;;;;;;;8.32;2.10;;;17.50;99.90;;;;;;5011302;28;20049;-81
2022/08/01 04:57:02;;;;;;;12.25;2.35;;;17.50;99.90;;;;;;5020279;28;20045;-81
2022/08/01 04:59:40;;;;;;;9.18;2.35;;;17.50;99.90;;;;;;5027502;28;20046;-81
2022/08/01 05:02:27;;;;;;;8.25;2.50;;;17.50;99.90;;;;;;5011898;28;20069;-81
2022/08/01 05:04:52;;;;;;;8.23;1.73;;;17.50;99.90;;;;;;5013987;28;20051;-81
2022/08/01 05:07:18;;;;;;;9.45;2.33;;;17.50;99.90;;;;;;5014848;28;20045;-81
2022/08/01 05:09:46;;;;;;;7.32;1.85;;;17.50;99.90;;;;;;5029257;28;20045;-81
2022/08/01 05:12:11;;;;;;;11.85;2.03;;;17.50;99.90;;;;;;5018380;28;20451;-81
2022/08/01 05:14:37;;;;;;;13.48;2.10;;;17.50;99.90;;;;;;5001483;28;20052;-81
2022/08/01 05:17:06;;;;;;;7.80;1.90;;;17.50;99.90;;;;;;5018629;28;20045;-81
2022/08/01 05:19:34;;;;;;;13.82;3.10;;;17.60;99.90;;;;;;5014865;28;20103;-81
2022/08/01 05:22:01;;;;;;;10.52;2.20;;;17.50;99.90;;;;;;5017989;28;20063;-81
2022/08/01 05:24:28;;;;;;;13.07;2.80;;;17.50;99.90;;;;;;5018038;28;20048;-80
2022/08/01 05:26:55;;;;;;;13.27;2.40;;;17.60;99.90;;;;;;5018944;28;20045;-81
2022/08/01 05:29:20;;;;;;;7.65;1.75;;;17.50;99.90;;;;;;5032139;28;20037;-81
2022/08/01 05:31:46;;;;;;;14.10;2.30;;;17.70;99.90;;;;;;5027896;28;20037;-81
2022/08/01 05:34:11;;;;;;;14.00;2.00;;;17.60;99.90;;;;;;5035363;28;20056;-81
2022/08/01 05:36:37;;;;;;;12.43;2.25;;;17.60;99.90;;;;;;5020043;28;20049;-81
2022/08/01 05:39:04;;;;;;;11.63;1.98;;;17.60;99.90;;;;;;5022374;28;20049;-81
2022/08/01 05:41:30;;;;;;;7.55;1.73;;;17.60;99.90;;;;;;5036829;28;20037;-81
2022/08/01 05:43:56;;;;;;;16.60;2.00;;;17.60;99.90;;;;;;5022309;28;20033;-81
2022/08/01 05:46:21;;;;;;;13.07;2.05;;;17.60;99.90;;;;;;5037613;28;20033;-81
2022/08/01 05:48:47;;;;;;;12.13;2.92;;;17.60;99.90;;;;;;5030953;28;20040;-81
2022/08/01 05:51:12;;;;;;;8.90;1.85;;;17.60;99.90;;;;;;5031616;28;20042;-81
2022/08/01 05:53:38;;;;;;;11.10;2.42;;;17.60;99.90;;;;;;5016264;28;20049;-81
2022/08/01 05:56:04;;;;;;;12.35;2.90;;;17.70;99.90;;;;;;5018654;28;20120;-81
2022/08/01 05:58:31;;;;;;;15.95;2.35;;;17.60;99.90;;;;;;5020033;28;20423;-81
2022/08/01 06:00:57;;;;;;;14.80;2.83;;;17.70;99.90;;;;;;5019585;28;20756;-81
2022/08/01 06:03:23;;;;;;;16.10;2.67;;;17.70;99.90;;;;;;5015572;28;20041;-81
2022/08/01 06:05:48;;;;;;;14.10;3.05;;;17.70;99.90;;;;;;5038741;28;20090;-81
2022/08/01 06:24:13;;;;;;;;;;;;;;;;;;;;;
2022/08/01 06:47:25;;;;;;;;;;;;;;;;;;;;;
2022/08/01 06:53:01;;;;;;;16.05;2.67;;;17.80;99.90;;;;;;6109178;23;20025;-83
2022/08/01 07:07:41;;;;;;;15.68;2.75;;;17.60;99.90;;;;;;6127606;23;20442;-85
2022/08/01 07:15:20;;;;;;;12.18;2.38;;;17.80;99.90;;;;;;6069943;23;20158;-85
2022/08/01 07:19:28;;;;;;;;;;;;;;;;;;;;;
2022/08/01 07:26:49;;;;;;;;;;;;;;;;;;;;;
2022/08/01 07:33:15;;;;;;;;;;;;;;;;;;;;;
2022/08/01 07:35:54;;;;;;;;;;;;;;;;;;;;;
2022/08/01 07:41:46;;;;;;;15.25;2.20;;;17.90;99.90;;;;;;6161400;23;20080;-80
2022/08/01 07:44:46;;;;;;;15.23;3.17;;;17.90;99.90;;;;;;6201547;23;20529;-81
2022/08/01 07:47:54;;;;;;;;;;;;;;;;;;;;;
2022/08/01 07:51:44;;;;;;;;;;;;;;;;;;;;;
2022/08/01 07:58:13;;;;;;;10.40;3.10;;;18.40;99.90;;;;;;5983222;23;20023;-84
2022/08/01 08:01:50;;;;;;;;;;;;;;;;;;;;;
2022/08/01 08:05:55;;;;;;;15.32;2.55;;;18.70;99.90;;;;;;5980356;24;20123;-83
2022/08/01 08:08:34;;;;;;;14.07;2.65;;;19.00;99.90;;;;;;5971646;23;20820;-83
2022/08/01 08:14:58;;;;;;;;;;;;;;;;;;;;;
2022/08/01 08:18:11;;;;;;;14.23;2.63;;;19.50;99.90;;;;;;6008297;23;20112;-81
2022/08/01 08:20:53;;;;;;;13.32;2.22;;;19.80;99.90;;;;;;6097093;23;20035;-82
2022/08/01 08:27:47;;;;;;;10.02;1.70;;;20.20;99.90;;;;;;6183370;23;20096;-84
2022/08/01 08:31:12;;;;;;;12.77;1.83;;;20.30;99.90;;;;;;6150759;23;20025;-81
2022/08/01 08:33:45;;;;;;;12.32;2.60;;;20.80;99.90;;;;;;6211041;23;20021;-83
2022/08/01 08:39:49;;;;;;;;;;;;;;;;;;;;;
2022/08/01 08:42:33;;;;;;;1085.22;80.05;;;21.40;99.90;;;;;;6274205;22;20022;-82
2022/08/01 08:48:50;;;;;;;11.52;3.13;;;22.00;99.90;;;;;;6097175;23;20018;-82
2022/08/01 08:52:11;;;;;;;10.98;1.33;;;21.20;99.90;;;;;;6015831;23;20015;-82
2022/08/01 08:55:29;;;;;;;;;;;;;;;;;;;;;
2022/08/01 08:58:33;;;;;;;;;;;;;;;;;;;;;
2022/08/01 09:01:30;;;;;;;8.88;1.70;;;21.60;99.90;;;;;;6249350;22;20344;-82
2022/08/01 09:04:14;;;;;;;9.32;1.42;;;22.00;99.90;;;;;;6193508;22;20116;-83
2022/08/01 09:06:46;;;;;;;31.88;4.38;;;22.70;99.90;;;;;;6245219;22;20065;-84
2022/08/01 09:09:53;;;;;;;;;;;;;;;;;;;;;
2022/08/01 09:13:11;;;;;;;;;;;;;;;;;;;;;
2022/08/01 09:16:25;;;;;;;;;;;;;;;;;;;;;
2022/08/01 09:22:58;;;;;;;9.95;2.53;;;23.40;99.90;;;;;;6274284;22;20053;-83
2022/08/01 09:26:02;;;;;;;;;;;;;;;;;;;;;
2022/08/01 09:29:05;;;;;;;;;;;;;;;;;;;;;
2022/08/01 09:35:12;;;;;;;6.88;1.80;;;23.80;99.90;;;;;;6183209;23;20019;-84
2022/08/01 09:38:29;;;;;;;32.53;2.90;;;23.80;99.90;;;;;;6118122;23;20049;-84
2022/08/01 09:41:30;;;;;;;4.90;1.25;;;23.90;99.90;;;;;;6089916;23;20014;-83
2022/08/01 09:47:17;;;;;;;11.23;1.45;;;23.80;99.90;;;;;;6133131;23;20052;-85
2022/08/01 09:49:45;;;;;;;5.38;1.58;;;23.80;99.90;;;;;;6240556;22;20019;-82
2022/08/01 09:52:14;;;;;;;6.00;1.30;;;23.90;99.90;;;;;;6246184;22;20038;-83
2022/08/01 09:58:49;;;;;;;8.40;1.35;;;24.00;99.90;;;;;;6276997;22;20013;-84
2022/08/01 10:01:50;;;;;;;8.45;1.33;;;24.10;99.90;;;;;;6304515;22;20015;-86
2022/08/01 10:05:05;;;;;;;7.45;1.40;;;24.20;99.90;;;;;;6207845;22;20023;-86
2022/08/01 10:11:50;;;;;;;8.18;1.52;;;24.50;99.90;;;;;;6269743;22;20276;-85
2022/08/01 10:18:49;;;;;;;6.07;1.10;;;23.90;99.90;;;;;;6148553;23;20032;-85
2022/08/01 10:21:57;;;;;;;8.70;1.98;;;23.90;99.90;;;;;;6098376;23;20104;-83
2022/08/01 10:25:12;;;;;;;6.50;1.38;;;24.10;99.90;;;;;;6100888;23;20073;-85
2022/08/01 10:28:29;;;;;;;8.55;1.38;;;24.30;99.90;;;;;;6009695;23;20035;-84
2022/08/01 10:31:01;;;;;;;6.10;0.80;;;24.50;99.90;;;;;;6004872;23;20134;-85
2022/08/01 10:44:56;;;;;;;;;;;;;;;;;;;;;
2022/08/01 10:48:18;;;;;;;;;;;;;;;;;;;;;
2022/08/01 10:51:39;;;;;;;5.60;1.98;;;23.90;99.90;;;;;;6116341;23;20355;-84
2022/08/01 10:55:01;;;;;;;7.85;1.00;;;24.10;99.90;;;;;;6091133;23;20061;-84
2022/08/01 10:58:38;;;;;;;6.87;1.27;;;24.10;99.90;;;;;;6108794;23;20078;-84
2022/08/01 11:02:08;;;;;;;5.35;1.10;;;23.90;99.90;;;;;;6155414;23;20059;-84
2022/08/01 11:05:29;;;;;;;8.05;1.00;;;24.00;99.90;;;;;;6096038;23;20014;-83
2022/08/01 11:15:15;;;;;;;5.78;1.40;;;23.60;99.90;;;;;;6241861;23;20019;-83
2022/08/01 11:20:57;;;;;;;;;;;;;;;;;;;;;
2022/08/01 11:24:35;;;;;;;7.63;1.00;;;23.70;99.90;;;;;;6275494;22;20100;-82
2022/08/01 11:31:26;;;;;;;10.30;1.35;;;23.80;99.90;;;;;;6270729;22;20360;-83
2022/08/01 11:34:21;;;;;;;3.83;0.88;;;23.80;99.90;;;;;;6222992;22;20015;-83
2022/08/01 11:37:31;;;;;;;5.10;0.93;;;23.60;99.90;;;;;;6273369;22;20019;-84
2022/08/01 11:40:41;;;;;;;;;;;;;;;;;;;;;
2022/08/01 11:44:38;;;;;;;;;;;;;;;;;;;;;
2022/08/01 11:47:11;;;;;;;5.65;1.23;;;23.50;99.90;;;;;;6217393;22;20023;-84
2022/08/01 11:50:11;;;;;;;3.40;0.82;;;23.70;99.90;;;;;;6271881;22;20015;-82
2022/08/01 11:53:21;;;;;;;7.35;1.02;;;23.80;99.90;;;;;;6274718;22;20011;-84
2022/08/01 11:55:57;;;;;;;7.53;1.15;;;24.00;99.90;;;;;;6172377;22;20019;-84
2022/08/01 12:14:21;;;;;;;3.40;0.80;;;23.80;99.90;;;;;;6133406;23;20020;-84
2022/08/01 12:17:32;;;;;;;7.15;1.65;;;23.70;99.90;;;;;;6157976;23;20023;-85
2022/08/01 12:21:20;;;;;;;;;;;;;;;;;;;;;
2022/08/01 12:24:28;;;;;;;6.45;1.10;;;23.80;99.90;;;;;;6007548;23;20035;-83
2022/08/01 12:32:39;;;;;;;;;;;;;;;;;;;;;
2022/08/01 12:35:36;;;;;;;;;;;;;;;;;;;;;
2022/08/01 12:39:16;;;;;;;7.53;0.88;;;23.40;99.90;;;;;;5951329;23;20023;-84
2022/08/01 12:42:31;;;;;;;;;;;;;;;;;;;;;
2022/08/01 12:45:57;;;;;;;6.25;1.15;;;23.40;99.90;;;;;;5852044;24;20018;-84
2022/08/01 13:01:27;;;;;;;6.53;1.00;;;23.60;99.90;;;;;;6305092;22;20023;-83
2022/08/01 13:04:59;;;;;;;4.70;0.65;;;23.70;99.90;;;;;;6299507;22;20015;-84
2022/08/01 13:08:59;;;;;;;4.35;0.52;;;23.70;99.90;;;;;;6207519;23;20162;-85
2022/08/01 13:11:36;;;;;;;3.40;1.02;;;23.60;99.90;;;;;;6141591;23;20032;-84
2022/08/01 13:14:39;;;;;;;2.85;0.60;;;23.60;99.90;;;;;;6178236;23;20017;-83
2022/08/01 13:29:13;;;;;;;;;;;;;;;;;;;;;
2022/08/01 13:31:45;;;;;;;4.15;0.45;;;23.30;99.90;;;;;;6146102;23;20033;-83
2022/08/01 13:38:19;;;;;;;7.90;0.82;;;23.60;99.90;;;;;;6064899;23;20021;-82
2022/08/01 13:40:58;;;;;;;4.00;0.60;;;23.70;99.90;;;;;;6077111;22;20014;-84
2022/08/01 13:43:26;;;;;;;4.88;1.10;;;24.00;99.90;;;;;;6268899;22;20043;-82
2022/08/01 13:45:55;;;;;;;4.47;0.70;;;23.80;99.90;;;;;;6266993;22;20023;-84
2022/08/01 13:48:21;;;;;;;6.57;0.82;;;23.80;99.90;;;;;;6268600;22;20057;-82
2022/08/01 13:51:39;;;;;;;;;;;;;;;;;;;;;
2022/08/01 13:55:20;;;;;;;7.32;0.95;;;23.60;99.90;;;;;;6269275;22;20011;-83
2022/08/01 13:58:08;;;;;;;3.28;0.80;;;23.60;99.90;;;;;;6215283;22;20054;-84
2022/08/01 14:00:58;;;;;;;4.25;0.90;;;23.80;99.90;;;;;;6185631;22;20087;-82
2022/08/01 14:03:23;;;;;;;5.05;0.80;;;23.60;99.90;;;;;;6269967;22;20019;-82
2022/08/01 14:05:48;;;;;;;4.93;0.82;;;23.90;99.90;;;;;;6269293;22;20428;-83
2022/08/01 14:08:14;;;;;;;2.60;0.65;;;23.50;99.90;;;;;;6268713;22;20015;-83
2022/08/01 14:10:46;;;;;;;7.20;1.00;;;23.50;99.90;;;;;;6242710;22;20007;-83
2022/08/01 14:13:25;;;;;;;3.55;0.85;;;23.70;99.90;;;;;;6270819;22;20091;-84
2022/08/01 14:16:38;;;;;;;;;;;;;;;;;;;;;
2022/08/01 14:43:13;;;;;;;;;;;;;;;;;;;;;
2022/08/01 15:05:44;;;;;;;;;;;;;;;;;;;;;
2022/08/01 15:08:25;;;;;;;;;;;23.10;99.90;;;;;;5844457;24;20024;-83
2022/08/01 15:11:54;;;;;;;;;;;;;;;;;;;;;
2022/08/01 15:15:29;;;;;;;;;;;;;;;;;;;;;
2022/08/01 15:36:33;;;;;;;;;;;;;;;;;;;;;
2022/08/01 15:58:52;;;;;;;2.95;0.50;;;22.70;98.20;;;;;;5981396;23;20055;-86
2022/08/01 16:01:55;;;;;;;4.03;0.75;;;22.50;98.60;;;;;;6080565;23;20119;-84
2022/08/01 16:05:35;;;;;;;4.90;0.80;;;22.30;99.20;;;;;;6066880;23;20075;-85
2022/08/01 16:08:01;;;;;;;7.82;0.85;;;22.30;99.60;;;;;;6031910;23;20464;-84
2022/08/01 16:10:27;;;;;;;5.15;1.10;;;22.20;99.50;;;;;;6127632;23;20334;-83
2022/08/01 16:12:53;;;;;;;6.20;0.55;;;22.20;99.00;;;;;;6153087;23;20793;-82
2022/08/01 16:15:19;;;;;;;3.45;0.57;;;22.10;98.80;;;;;;6155980;23;20110;-83
2022/08/01 16:17:53;;;;;;;8.65;0.90;;;21.90;98.70;;;;;;6156691;23;20063;-83
2022/08/01 16:20:29;;;;;;;;;;;;;;;;;;;;;
2022/08/01 16:23:38;;;;;;;1.95;0.55;;;21.80;99.80;;;;;;6154780;23;20028;-83
2022/08/01 16:26:25;;;;;;;9.98;1.13;;;21.70;99.90;;;;;;6066557;23;20018;-83
2022/08/01 16:29:24;;;;;;;5.82;0.50;;;21.70;99.90;;;;;;6173096;22;20533;-83
2022/08/01 16:39:54;;;;;;;;;;;;;;;;;;;;;
2022/08/01 16:42:21;;;;;;;6.05;1.05;;;21.40;99.90;;;;;;6217681;22;20123;-84
2022/08/01 16:45:23;;;;;;;;;;;;;;;;;;;;;
2022/08/01 16:51:30;;;;;;;5.60;0.80;;;21.40;99.90;;;;;;6240861;23;20019;-84
2022/08/01 17:05:41;;;;;;;10.37;1.63;;;21.00;99.90;;;;;;6305568;22;19921;-83
2022/08/01 17:08:39;;;;;;;;;;;;;;;;;;;;;
2022/08/01 17:11:35;;;;;;;7.00;0.70;;;20.90;99.90;;;;;;6276957;22;20015;-83
2022/08/01 17:14:38;;;;;;;;;;;;;;;;;;;;;
2022/08/01 17:18:10;;;;;;;5.40;1.00;;;20.50;99.90;;;;;;6166282;22;20015;-83
2022/08/01 17:21:33;;;;;;;7.25;1.17;;;20.40;99.90;;;;;;6281132;22;20046;-86
2022/08/01 17:24:41;;;;;;;;;;;;;;;;;;;;;
2022/08/01 17:27:53;;;;;;;5.45;0.70;;;20.30;99.90;;;;;;6276590;22;20016;-84
2022/08/01 17:30:41;;;;;;;8.18;1.45;;;20.20;99.90;;;;;;6253220;22;20014;-83
2022/08/01 17:55:44;;;;;;;;;;;;;;;;;;;;;
2022/08/01 18:05:41;;;;;;;;;;;;;;;;;;;;;
2022/08/01 18:12:40;;;;;;;;;;;;;;;;;;;;;
2022/08/01 18:16:11;;;;;;;;;;;;;;;;;;;;;
2022/08/01 18:18:51;;;;;;;3.95;0.70;;;18.80;99.90;;;;;;5974489;23;20019;-83
2022/08/01 19:03:01;;;;;;;;;;;;;;;;;;;;;
2022/08/01 19:06:22;;;;;;;;;;;;;;;;;;;;;
2022/08/01 19:09:53;;;;;;;10.35;0.90;;;17.60;99.90;;;;;;6293501;22;20022;-83
2022/08/01 19:12:28;;;;;;;4.93;0.65;;;17.40;99.90;;;;;;6190874;22;20007;-83
2022/08/01 19:14:55;;;;;;;8.93;1.58;;;17.30;99.90;;;;;;6244108;22;20016;-84
2022/08/01 19:17:23;;;;;;;6.38;0.73;;;17.10;99.90;;;;;;6243454;22;20069;-85
2022/08/01 19:19:56;;;;;;;5.75;1.15;;;17.20;99.90;;;;;;6247555;22;20012;-86
2022/08/01 19:26:39;;;;;;;;;;;;;;;;;;;;;
2022/08/01 19:29:33;;;;;;;;;;;;;;;;;;;;;
2022/08/01 19:32:12;;;;;;;9.20;1.20;;;16.60;99.90;;;;;;6272226;22;20074;-83
2022/08/01 19:35:01;;;;;;;;;;;;;;;;;;;;;
2022/08/01 19:38:12;;;;;;;;;;;;;;;;;;;;;
2022/08/01 19:40:57;;;;;;;7.32;1.27;;;16.30;99.90;;;;;;6274647;22;20452;-84
2022/08/01 19:44:06;;;;;;;;;;;;;;;;;;;;;
2022/08/01 19:47:27;;;;;;;;;;;;;;;;;;;;;
2022/08/01 19:50:12;;;;;;;9.13;1.42;;;15.90;99.90;;;;;;6277081;22;20016;-83
2022/08/01 19:52:41;;;;;;;7.10;1.00;;;15.90;99.90;;;;;;6248754;22;20015;-84
2022/08/01 19:55:19;;;;;;;6.35;1.35;;;16.20;99.90;;;;;;6248026;22;20340;-83
2022/08/01 19:58:51;;;;;;;6.18;0.80;;;16.30;99.90;;;;;;6273145;22;20077;-84
2022/08/01 20:01:34;;;;;;;5.00;0.93;;;15.80;99.90;;;;;;6260307;22;20099;-83
2022/08/01 20:04:57;;;;;;;6.15;0.93;;;15.50;99.90;;;;;;6271894;22;20022;-84
2022/08/01 20:14:47;;;;;;;;;;;;;;;;;;;;;
2022/08/01 20:20:46;;;;;;;6.07;1.20;;;15.00;99.90;;;;;;6180242;23;20028;-84
2022/08/01 20:23:29;;;;;;;;;;;;;;;;;;;;;
2022/08/01 20:26:22;;;;;;;7.90;1.02;;;14.80;99.90;;;;;;6179946;23;20444;-85
2022/08/01 20:29:34;;;;;;;10.95;0.85;;;14.70;99.90;;;;;;6144754;23;20009;-84
2022/08/01 20:36:11;;;;;;;7.38;1.30;;;14.70;99.90;;;;;;6008729;23;20107;-81
2022/08/01 20:38:54;;;;;;;7.43;1.20;;;14.90;99.90;;;;;;6240340;23;20015;-82
2022/08/01 20:42:10;;;;;;;7.95;1.00;;;14.50;99.90;;;;;;6244885;23;20023;-84
2022/08/01 20:45:15;;;;;;;5.47;1.08;;;14.40;99.90;;;;;;6242304;23;20052;-83
2022/08/01 20:51:19;;;;;;;4.05;0.90;;;14.20;99.90;;;;;;6100954;23;20025;-81
2022/08/01 20:54:12;;;;;;;;;;;;;;;;;;;;;
2022/08/01 20:57:14;;;;;;;;;;;;;;;;;;;;;
2022/08/01 21:00:11;;;;;;;7.82;0.80;;;14.00;99.90;;;;;;6245061;22;20030;-84
2022/08/01 21:03:25;;;;;;;;;;;;;;;;;;;;;
2022/08/01 21:06:30;;;;;;;;;;;;;;;;;;;;;
2022/08/01 21:09:12;;;;;;;;;;;;;;;;;;;;;
2022/08/01 21:12:04;;;;;;;3.75;0.95;;;13.80;99.90;;;;;;6242806;23;20012;-81
2022/08/01 21:15:05;;;;;;;5.53;0.85;;;13.80;99.90;;;;;;6220116;23;20022;-81
2022/08/01 21:21:26;;;;;;;4.95;1.08;;;13.70;99.90;;;;;;6155388;23;20020;-82
2022/08/01 21:24:07;;;;;;;3.85;1.00;;;13.60;99.90;;;;;;6156031;23;20021;-81
2022/08/01 21:26:38;;;;;;;6.38;1.15;;;13.60;99.90;;;;;;6154263;23;20075;-81
2022/08/01 21:29:22;;;;;;;8.50;1.20;;;13.50;99.90;;;;;;6197423;22;20094;-81
2022/08/01 21:32:10;;;;;;;4.82;0.95;;;13.40;99.90;;;;;;6241866;23;20020;-85
2022/08/01 21:34:54;;;;;;;4.63;0.98;;;14.20;99.90;;;;;;6242634;23;20012;-84
2022/08/01 21:37:33;;;;;;;;;;;;;;;;;;;;;
2022/08/01 21:40:22;;;;;;;8.52;1.15;;;13.40;99.90;;;;;;6240880;22;20070;-81
2022/08/01 21:42:53;;;;;;;7.60;0.95;;;13.20;99.90;;;;;;6242272;23;20027;-81
2022/08/01 21:45:21;;;;;;;6.30;1.35;;;13.20;99.90;;;;;;6242085;23;20467;-84
2022/08/01 21:47:48;;;;;;;5.07;0.95;;;13.20;99.90;;;;;;6240459;23;20016;-85
2022/08/01 21:50:14;;;;;;;7.28;1.25;;;13.20;99.90;;;;;;6241976;22;20008;-82
2022/08/01 21:52:46;;;;;;;4.78;0.98;;;13.00;99.90;;;;;;6242105;23;20397;-81
2022/08/01 21:55:20;;;;;;;5.45;1.35;;;13.00;99.90;;;;;;6242496;23;20031;-81
2022/08/01 21:57:55;;;;;;;6.45;1.80;;;13.00;99.90;;;;;;6241960;23;20074;-82
2022/08/01 22:00:21;;;;;;;6.57;1.47;;;12.90;99.90;;;;;;6216509;23;20026;-82
2022/08/01 22:02:54;;;;;;;10.10;1.55;;;12.80;99.90;;;;;;6242697;23;20019;-82
2022/08/01 22:05:25;;;;;;;6.78;1.33;;;12.80;99.90;;;;;;6241191;23;20464;-81
2022/08/01 22:08:00;;;;;;;6.38;1.65;;;12.80;99.90;;;;;;6240250;23;20012;-82
2022/08/01 22:10:27;;;;;;;4.72;1.35;;;12.80;99.90;;;;;;6241517;23;20464;-81
2022/08/01 22:12:53;;;;;;;2.33;0.80;;;12.70;99.90;;;;;;6242928;23;20016;-81
2022/08/01 22:15:23;;;;;;;5.78;1.40;;;12.70;99.90;;;;;;6242217;23;20062;-81
2022/08/01 22:17:50;;;;;;;5.22;1.05;;;12.70;99.90;;;;;;6215775;23;20016;-81
2022/08/01 22:20:21;;;;;;;5.18;1.00;;;12.60;99.90;;;;;;6240417;22;20118;-81
2022/08/01 22:22:47;;;;;;;7.07;0.88;;;12.60;99.90;;;;;;6242570;23;20012;-82
2022/08/01 22:25:13;;;;;;;4.82;1.20;;;12.60;99.90;;;;;;6242194;23;20453;-81
2022/08/01 22:27:40;;;;;;;8.63;1.17;;;12.50;99.90;;;;;;6241343;23;20020;-81
2022/08/01 22:30:08;;;;;;;7.00;1.52;;;12.50;99.90;;;;;;6240345;22;20046;-80
2022/08/01 22:32:36;;;;;;;7.07;1.70;;;12.50;99.90;;;;;;6241686;23;20016;-81